Spring City, Pennsylvania
Current Conditions -  °F | °C
As of 1:54 PM on Thursday 30 Oct 2014 (Local Time) from KPTW Reporting Station
Broken Clouds Broken Clouds  
Wind Chill: 56°   Ceiling: 4700
Heat Index: 56°   Visibility: 10mi
Dew Point: 38°   Wind: 8mph
Humidity: 51%   Direction: 350°N
Pressure: 30.01"   Gusts: NA
Location:  40.18°N, 75.55°W
Report Text: KPTW 301754Z AUTO 35007KT 10SM BKN047 13/03 A3001 RMK AO2 SLP161 T01330033 10144 20033 58010
Loading
Personal Weather Stations






























Interactive Weather Map
Tropical Storm Tracking
New forecast layout! Learn more

10-Day Weather Forecast

Advertisements
Track Severe Weather on mobile